createdAt,value
2018-01-01T00:01:25.656Z,14.70
2018-01-01T00:03:54.090Z,16.17
2018-01-01T00:06:22.514Z,9.43
2018-01-01T00:08:51.137Z,8.00
2018-01-01T00:11:19.856Z,8.97
2018-01-01T00:13:49.023Z,6.80
2018-01-01T00:16:17.472Z,5.87
2018-01-01T00:18:45.851Z,6.00
2018-01-01T00:21:14.266Z,6.90
2018-01-01T00:23:42.796Z,5.30
2018-01-01T00:26:11.938Z,5.60
2018-01-01T00:28:40.303Z,2.67
2018-01-01T00:31:08.746Z,4.57
2018-01-01T00:33:37.901Z,2.67
2018-01-01T00:36:06.486Z,2.90
2018-01-01T00:38:34.954Z,2.30
2018-01-01T00:41:03.361Z,4.10
2018-01-01T00:43:31.736Z,2.77
2018-01-01T00:46:00.249Z,2.93
2018-01-01T00:48:29.414Z,6.07
2018-01-01T00:50:57.793Z,8.13
2018-01-01T00:53:26.406Z,5.90
2018-01-01T00:55:54.851Z,4.63
2018-01-01T00:58:23.232Z,6.90
2018-01-01T01:00:52.460Z,2.50
2018-01-01T01:03:20.901Z,3.97
2018-01-01T01:05:49.272Z,3.47
2018-01-01T01:08:17.760Z,3.20
2018-01-01T01:10:46.148Z,6.00
2018-01-01T01:13:14.549Z,3.47
2018-01-01T01:15:43.096Z,4.60
2018-01-01T01:18:11.497Z,3.90
2018-01-01T01:20:39.865Z,3.57
2018-01-01T01:23:08.269Z,3.23
2018-01-01T01:25:36.932Z,3.87
2018-01-01T01:28:05.319Z,2.93
2018-01-01T01:30:33.829Z,2.97
2018-01-01T01:33:02.991Z,2.17
2018-01-01T01:35:31.370Z,2.87
2018-01-01T01:37:59.948Z,1.27
2018-01-01T01:40:28.331Z,1.13
2018-01-01T01:42:56.695Z,2.20
2018-01-01T01:45:25.435Z,1.50
2018-01-01T01:47:54.594Z,1.40
2018-01-01T01:50:23.047Z,1.23
2018-01-01T01:52:51.460Z,1.97
2018-01-01T01:55:19.850Z,1.90
2018-01-01T01:57:48.247Z,2.03
2018-01-01T02:00:17.579Z,2.50
2018-01-01T02:02:47.022Z,1.00
2018-01-01T02:05:15.409Z,1.50
2018-01-01T02:07:43.922Z,0.80
2018-01-01T02:10:12.304Z,1.80
2018-01-01T02:12:40.708Z,2.10
2018-01-01T02:15:10.375Z,1.50
2018-01-01T02:17:39.516Z,1.80
2018-01-01T02:20:07.923Z,1.63
2018-01-01T02:22:37.342Z,2.40
2018-01-01T02:25:06.496Z,1.13
2018-01-01T02:27:34.913Z,1.63
2018-01-01T02:30:03.329Z,2.03
2018-01-01T02:32:33.808Z,2.13
2018-01-01T02:35:02.199Z,2.90
2018-01-01T02:37:30.616Z,1.90
2018-01-01T02:39:59.251Z,2.00
2018-01-01T02:42:27.666Z,1.80
2018-01-01T02:44:56.869Z,2.00
2018-01-01T02:47:25.295Z,2.17
2018-01-01T02:49:53.703Z,2.30
2018-01-01T02:52:23.008Z,1.17
2018-01-01T02:54:51.407Z,1.40
2018-01-01T02:57:19.775Z,1.10
2018-01-01T02:59:49.173Z,2.00
2018-01-01T03:02:18.327Z,1.00
2018-01-01T03:04:47.974Z,1.10
2018-01-01T03:07:16.396Z,2.03
2018-01-01T03:09:44.791Z,0.80
2018-01-01T03:12:13.170Z,1.07
2018-01-01T03:14:42.526Z,1.47
2018-01-01T03:17:11.710Z,0.93
2018-01-01T03:19:40.870Z,1.57
2018-01-01T03:22:09.604Z,1.20
2018-01-01T03:24:38.739Z,1.10
2018-01-01T03:27:07.122Z,1.70
2018-01-01T03:29:35.698Z,1.07
2018-01-01T03:32:04.141Z,1.50
2018-01-01T03:34:33.279Z,1.23
2018-01-01T03:37:01.702Z,1.17
2018-01-01T03:39:30.105Z,1.23
2018-01-01T03:41:58.523Z,1.10
2018-01-01T03:44:27.109Z,0.40
2018-01-01T03:46:55.505Z,0.93
2018-01-01T03:49:23.896Z,2.03
2018-01-01T03:51:52.457Z,0.80
2018-01-01T03:54:20.990Z,0.77
2018-01-01T03:56:50.145Z,0.87
2018-01-01T03:59:20.217Z,0.73
2018-01-01T04:01:48.746Z,0.70
2018-01-01T04:04:17.119Z,1.30
2018-01-01T04:06:46.852Z,1.00
2018-01-01T04:09:15.250Z,0.70
2018-01-01T04:11:44.393Z,0.73
2018-01-01T04:14:12.967Z,1.37
2018-01-01T04:16:41.363Z,0.90
2018-01-01T04:19:09.929Z,0.77
2018-01-01T04:21:38.447Z,1.67
2018-01-01T04:24:07.940Z,0.87
2018-01-01T04:26:36.322Z,1.00
2018-01-01T04:29:05.044Z,0.80
2018-01-01T04:31:34.199Z,1.23
2018-01-01T04:34:02.586Z,1.37
2018-01-01T04:36:31.147Z,0.50
2018-01-01T04:38:59.531Z,0.73
2018-01-01T04:41:27.951Z,1.07
2018-01-01T04:43:57.789Z,1.43
2018-01-01T04:46:26.203Z,0.90
2018-01-01T04:48:55.617Z,0.90
2018-01-01T04:51:24.063Z,0.63
2018-01-01T04:53:53.337Z,0.80
2018-01-01T04:56:21.741Z,0.40
2018-01-01T04:58:50.288Z,1.90
2018-01-01T05:01:19.449Z,1.23
2018-01-01T05:03:47.864Z,1.57
2018-01-01T05:06:17.181Z,0.80
2018-01-01T05:08:45.823Z,2.00
2018-01-01T05:11:14.204Z,0.93
2018-01-01T05:13:42.777Z,1.00
2018-01-01T05:16:11.164Z,1.00
2018-01-01T05:18:39.548Z,0.90
2018-01-01T05:21:08.061Z,1.10
2018-01-01T05:23:36.437Z,0.70
2018-01-01T05:26:05.591Z,1.17
2018-01-01T05:28:34.028Z,1.23
2018-01-01T05:31:02.403Z,1.03
2018-01-01T05:33:30.986Z,0.77
2018-01-01T05:35:59.499Z,0.60
2018-01-01T05:38:27.884Z,0.97
2018-01-01T05:40:56.253Z,0.83
2018-01-01T05:43:24.686Z,1.00
2018-01-01T05:45:53.846Z,1.33
2018-01-01T05:48:22.222Z,1.73
2018-01-01T05:50:51.152Z,1.10
2018-01-01T05:53:20.297Z,0.70
2018-01-01T05:55:48.660Z,1.70
2018-01-01T05:58:17.164Z,1.27
2018-01-01T06:00:45.544Z,0.60
2018-01-01T06:03:15.935Z,0.63
2018-01-01T06:05:44.568Z,0.40
2018-01-01T06:08:12.961Z,1.10
2018-01-01T06:10:41.715Z,1.17
2018-01-01T06:13:10.247Z,0.80
2018-01-01T06:15:39.415Z,0.50
2018-01-01T06:18:07.823Z,1.00
2018-01-01T06:20:37.195Z,0.53
2018-01-01T06:23:05.774Z,0.77
2018-01-01T06:25:34.194Z,0.60
2018-01-01T06:28:03.392Z,0.97
2018-01-01T06:30:32.533Z,0.50
2018-01-01T06:33:00.959Z,0.40
2018-01-01T06:35:29.550Z,0.60
2018-01-01T06:37:58.716Z,0.83
2018-01-01T06:40:27.102Z,0.93
2018-01-01T06:42:55.714Z,0.97
2018-01-01T06:45:24.521Z,0.63
2018-01-01T06:47:52.975Z,0.60
2018-01-01T06:50:22.173Z,0.60
2018-01-01T06:52:52.260Z,0.50
2018-01-01T06:55:20.650Z,0.90
2018-01-01T06:57:49.050Z,0.80
2018-01-01T07:00:18.304Z,0.30
2018-01-01T07:02:46.693Z,0.80
2018-01-01T07:05:15.502Z,0.47
2018-01-01T07:07:43.996Z,0.87
2018-01-01T07:10:13.155Z,0.47
2018-01-01T07:12:41.887Z,0.40
2018-01-01T07:15:10.327Z,0.80
2018-01-01T07:17:38.770Z,0.70
2018-01-01T07:20:07.558Z,0.70
2018-01-01T07:22:35.942Z,1.70
2018-01-01T07:25:04.352Z,0.77
2018-01-01T07:27:32.776Z,0.70
2018-01-01T07:30:01.950Z,1.07
2018-01-01T07:32:30.431Z,0.70
2018-01-01T07:35:00.669Z,0.87
2018-01-01T07:37:29.922Z,1.70
2018-01-01T07:39:58.316Z,1.53
2018-01-01T07:42:26.728Z,0.80
2018-01-01T07:44:55.893Z,0.60
2018-01-01T07:47:24.358Z,0.70
2018-01-01T07:49:53.672Z,0.50
2018-01-01T07:52:22.063Z,0.70
2018-01-01T07:54:50.443Z,1.27
2018-01-01T07:57:19.581Z,1.00
2018-01-01T07:59:48.035Z,0.97
2018-01-01T08:02:17.616Z,0.50
2018-01-01T08:04:46.122Z,1.03
2018-01-01T08:07:15.275Z,0.80
2018-01-01T08:09:43.668Z,0.40
2018-01-01T08:12:12.236Z,0.97
2018-01-01T08:14:41.765Z,1.40
2018-01-01T08:17:10.149Z,1.17
2018-01-01T08:19:38.592Z,0.80
2018-01-01T08:22:07.837Z,0.60
2018-01-01T08:24:36.256Z,0.50
2018-01-01T08:27:04.913Z,0.90
2018-01-01T08:29:34.077Z,0.70
2018-01-01T08:32:02.583Z,1.00
2018-01-01T08:34:32.386Z,1.43
2018-01-01T08:37:00.749Z,1.20
2018-01-01T08:39:29.220Z,0.90
2018-01-01T08:41:57.798Z,0.67
2018-01-01T08:44:26.191Z,1.57
2018-01-01T08:46:54.808Z,0.97
2018-01-01T08:49:24.032Z,1.10
2018-01-01T08:51:52.566Z,1.43
2018-01-01T08:54:20.943Z,1.97
2018-01-01T08:56:49.378Z,0.50
2018-01-01T08:59:17.867Z,0.80
2018-01-01T09:01:47.083Z,0.77
2018-01-01T09:04:15.602Z,1.17
2018-01-01T09:06:43.992Z,1.00
2018-01-01T09:09:13.442Z,1.10
2018-01-01T09:11:42.407Z,0.43
2018-01-01T09:14:10.778Z,1.13
2018-01-01T09:16:40.291Z,1.33
2018-01-01T09:19:08.870Z,0.80
2018-01-01T09:21:37.253Z,0.73
2018-01-01T09:24:05.650Z,0.70
2018-01-01T09:26:34.274Z,0.90
2018-01-01T09:29:02.703Z,1.57
2018-01-01T09:31:31.940Z,0.90
2018-01-01T09:34:00.750Z,0.67
2018-01-01T09:36:29.143Z,0.80
2018-01-01T09:38:58.282Z,0.90
2018-01-01T09:41:27.811Z,1.00
2018-01-01T09:43:56.296Z,1.00
2018-01-01T09:46:24.654Z,0.90
2018-01-01T09:48:53.086Z,0.80
2018-01-01T09:51:22.191Z,0.77
2018-01-01T09:53:50.623Z,0.80
2018-01-01T09:56:19.345Z,0.60
2018-01-01T09:58:48.502Z,0.90
2018-01-01T10:01:16.904Z,1.47
2018-01-01T10:03:45.760Z,0.50
2018-01-01T10:06:14.245Z,0.80
2018-01-01T10:08:42.705Z,0.93
2018-01-01T10:11:11.458Z,1.27
2018-01-01T10:13:40.623Z,0.97
2018-01-01T10:16:09.035Z,0.87
2018-01-01T10:18:38.571Z,0.80
2018-01-01T10:21:06.958Z,1.03
2018-01-01T10:23:35.369Z,0.60
2018-01-01T10:26:04.084Z,1.07
2018-01-01T10:28:33.235Z,0.60
2018-01-01T10:31:02.451Z,0.93
2018-01-01T10:33:32.996Z,0.50
2018-01-01T10:36:02.148Z,0.60
2018-01-01T10:38:30.567Z,0.83
2018-01-01T10:40:59.107Z,0.63
2018-01-01T10:43:28.350Z,0.67
2018-01-01T10:45:56.752Z,0.60
2018-01-01T10:48:25.922Z,1.07
2018-01-01T10:50:54.292Z,1.00
2018-01-01T10:53:22.678Z,0.83
2018-01-01T10:55:53.829Z,0.70
2018-01-01T10:58:22.204Z,0.70
2018-01-01T11:00:50.606Z,0.87
2018-01-01T11:03:20.006Z,0.83
2018-01-01T11:05:49.203Z,0.97
2018-01-01T11:08:18.369Z,0.87
2018-01-01T11:10:46.918Z,0.90
2018-01-01T11:13:15.312Z,1.07
2018-01-01T11:15:43.694Z,0.50
2018-01-01T11:18:12.268Z,0.80
2018-01-01T11:20:41.067Z,1.27
2018-01-01T11:23:09.467Z,0.60
2018-01-01T11:25:37.888Z,1.13
2018-01-01T11:28:06.275Z,1.00
2018-01-01T11:30:34.649Z,1.33
2018-01-01T11:33:03.207Z,1.43
2018-01-01T11:35:32.376Z,0.70
2018-01-01T11:38:01.037Z,0.83
2018-01-01T11:40:29.439Z,1.17
2018-01-01T11:42:57.812Z,1.63
2018-01-01T11:45:26.574Z,0.77
2018-01-01T11:47:55.142Z,1.63
2018-01-01T11:50:23.509Z,0.73
2018-01-01T11:52:52.650Z,1.93
2018-01-01T11:55:21.365Z,2.00
2018-01-01T11:57:49.777Z,1.20
2018-01-01T12:00:18.172Z,1.63
2018-01-01T12:02:47.662Z,0.90
2018-01-01T12:05:16.806Z,1.10
2018-01-01T12:07:45.197Z,1.13
2018-01-01T12:10:13.728Z,2.47
2018-01-01T12:12:42.117Z,1.93
2018-01-01T12:15:10.515Z,1.00
2018-01-01T12:17:39.057Z,0.97
2018-01-01T12:20:07.448Z,1.33
2018-01-01T12:22:36.044Z,1.00
2018-01-01T12:25:04.603Z,0.70
2018-01-01T12:27:33.002Z,1.30
2018-01-01T12:30:01.425Z,0.70
2018-01-01T12:32:29.984Z,1.20
2018-01-01T12:34:58.431Z,1.10
2018-01-01T12:37:26.840Z,1.43
2018-01-01T12:39:55.585Z,1.27
2018-01-01T12:42:24.736Z,0.57
2018-01-01T12:44:53.952Z,1.20
2018-01-01T12:47:22.532Z,1.10
2018-01-01T12:49:50.928Z,0.50
2018-01-01T12:52:19.308Z,1.60
2018-01-01T12:54:48.924Z,1.40
2018-01-01T12:57:18.083Z,1.97
2018-01-01T12:59:46.664Z,1.37
2018-01-01T13:02:15.142Z,1.27
2018-01-01T13:04:44.547Z,2.10
2018-01-01T13:07:12.927Z,1.00
2018-01-01T13:09:41.340Z,1.10
2018-01-01T13:12:10.510Z,0.50
2018-01-01T13:14:38.895Z,1.00
2018-01-01T13:17:07.348Z,1.40
2018-01-01T13:19:35.757Z,0.70
2018-01-01T13:22:04.208Z,1.40
2018-01-01T13:24:33.267Z,1.13
2018-01-01T13:27:01.694Z,2.30
2018-01-01T13:29:30.071Z,2.40
2018-01-01T13:31:59.540Z,1.23
2018-01-01T13:34:27.961Z,0.60
2018-01-01T13:36:56.432Z,1.50
2018-01-01T13:39:24.853Z,1.93
2018-01-01T13:41:54.005Z,1.90
2018-01-01T13:44:22.386Z,2.17
2018-01-01T13:46:50.854Z,1.07
2018-01-01T13:49:20.235Z,0.87
2018-01-01T13:51:48.637Z,0.77
2018-01-01T13:54:17.395Z,1.53
2018-01-01T13:56:45.785Z,1.30
2018-01-01T13:59:14.206Z,2.03
2018-01-01T14:01:42.689Z,2.30
2018-01-01T14:04:11.104Z,1.40
2018-01-01T14:06:39.505Z,1.93
2018-01-01T14:09:08.087Z,2.87
2018-01-01T14:11:36.514Z,2.17
2018-01-01T14:14:05.285Z,2.13
2018-01-01T14:16:33.705Z,1.00
2018-01-01T14:19:02.844Z,2.10
2018-01-01T14:21:31.220Z,1.57
2018-01-01T14:23:59.722Z,1.00
2018-01-01T14:26:28.724Z,1.07
2018-01-01T14:28:57.124Z,2.57
2018-01-01T14:31:25.706Z,1.87
2018-01-01T14:33:54.110Z,1.10
2018-01-01T14:36:23.279Z,2.13
2018-01-01T14:38:52.187Z,1.27
2018-01-01T14:41:21.839Z,1.33
2018-01-01T14:43:50.274Z,1.97
2018-01-01T14:46:19.701Z,1.30
2018-01-01T14:48:48.872Z,1.97
2018-01-01T14:51:18.032Z,2.17
2018-01-01T14:53:46.477Z,1.33
2018-01-01T14:56:15.639Z,1.70
2018-01-01T14:58:44.022Z,1.53
2018-01-01T15:01:12.448Z,1.90
2018-01-01T15:03:40.949Z,1.60
2018-01-01T15:06:09.350Z,0.87
2018-01-01T15:08:37.868Z,2.63
2018-01-01T15:11:06.275Z,2.90
2018-01-01T15:13:34.722Z,1.87
2018-01-01T15:16:04.258Z,1.10
2018-01-01T15:18:33.406Z,0.93
2018-01-01T15:21:01.804Z,3.33
2018-01-01T15:23:30.245Z,2.57
2018-01-01T15:25:58.631Z,3.10
2018-01-01T15:28:27.588Z,1.53
2018-01-01T15:30:56.948Z,1.33
2018-01-01T15:33:26.111Z,1.73
2018-01-01T15:35:54.505Z,2.10
2018-01-01T15:38:23.099Z,2.67
2018-01-01T15:40:52.248Z,1.30
2018-01-01T15:43:21.449Z,2.00
2018-01-01T15:45:50.183Z,2.27
2018-01-01T15:48:19.347Z,2.40
2018-01-01T15:50:47.773Z,2.37
2018-01-01T15:53:16.751Z,2.70
2018-01-01T15:55:45.907Z,2.63
2018-01-01T15:58:14.316Z,1.07
2018-01-01T16:00:42.898Z,1.80
2018-01-01T16:03:11.285Z,1.50
2018-01-01T16:05:40.459Z,3.93
2018-01-01T16:08:09.016Z,1.43
2018-01-01T16:10:38.265Z,2.50
2018-01-01T16:13:06.627Z,2.30
2018-01-01T16:15:35.238Z,1.87
2018-01-01T16:18:04.474Z,2.00
2018-01-01T16:20:32.843Z,0.80
2018-01-01T16:23:01.413Z,2.70
2018-01-01T16:25:29.801Z,3.00
2018-01-01T16:27:58.261Z,1.50
2018-01-01T16:30:27.998Z,2.10
2018-01-01T16:32:56.390Z,1.90
2018-01-01T16:35:24.790Z,2.90
2018-01-01T16:37:53.263Z,2.13
2018-01-01T16:40:21.650Z,1.10
2018-01-01T16:42:50.108Z,2.33
2018-01-01T16:45:18.641Z,2.50
2018-01-01T16:47:47.781Z,1.57
2018-01-01T16:50:16.182Z,3.50
2018-01-01T16:52:44.724Z,2.90
2018-01-01T16:55:13.127Z,2.77
2018-01-01T16:57:41.512Z,2.40
2018-01-01T17:00:10.240Z,2.90
2018-01-01T17:02:39.403Z,1.27
2018-01-01T17:05:07.807Z,5.23
2018-01-01T17:07:36.444Z,3.10
2018-01-01T17:10:04.843Z,0.87
2018-01-01T17:12:33.227Z,2.17
2018-01-01T17:15:01.754Z,2.20
2018-01-01T17:17:30.827Z,2.10
2018-01-01T17:19:59.239Z,2.73
2018-01-01T17:22:27.681Z,3.00
2018-01-01T17:24:56.098Z,4.80
2018-01-01T17:27:24.522Z,1.33
2018-01-01T17:29:53.097Z,3.20
2018-01-01T17:32:22.153Z,2.37
2018-01-01T17:34:51.491Z,0.97
2018-01-01T17:37:19.965Z,2.03
2018-01-01T17:39:48.401Z,1.80
2018-01-01T17:42:17.975Z,1.47
2018-01-01T17:44:48.054Z,1.17
2018-01-01T17:47:17.238Z,2.07
2018-01-01T17:49:46.428Z,1.67
2018-01-01T17:52:15.670Z,1.60
2018-01-01T17:54:44.104Z,2.50
2018-01-01T17:57:13.382Z,2.00
2018-01-01T17:59:41.864Z,2.07
2018-01-01T18:02:10.465Z,2.13
2018-01-01T18:04:39.698Z,2.37
2018-01-01T18:07:08.196Z,1.30
2018-01-01T18:09:36.589Z,2.10
2018-01-01T18:12:04.982Z,0.87
2018-01-01T18:14:33.425Z,2.00
2018-01-01T18:17:01.806Z,2.30
2018-01-01T18:19:30.185Z,1.47
2018-01-01T18:21:58.787Z,1.23
2018-01-01T18:24:27.187Z,0.80
2018-01-01T18:26:55.602Z,2.20
2018-01-01T18:29:24.044Z,0.80
2018-01-01T18:31:52.435Z,1.70
2018-01-01T18:34:21.246Z,1.33
2018-01-01T18:36:50.424Z,2.20
2018-01-01T18:39:18.804Z,1.67
2018-01-01T18:41:47.993Z,2.60
2018-01-01T18:44:16.507Z,1.17
2018-01-01T18:46:45.044Z,1.33
2018-01-01T18:49:13.444Z,0.90
2018-01-01T18:51:42.796Z,1.93
2018-01-01T18:54:11.179Z,2.87
2018-01-01T18:56:39.563Z,1.37
2018-01-01T18:59:08.192Z,1.80
2018-01-01T19:01:36.600Z,2.20
2018-01-01T19:04:04.977Z,2.07
2018-01-01T19:06:33.528Z,1.60
2018-01-01T19:09:01.922Z,1.20
2018-01-01T19:11:31.391Z,1.67
2018-01-01T19:14:00.109Z,0.87
2018-01-01T19:16:29.276Z,1.63
2018-01-01T19:18:57.656Z,2.00
2018-01-01T19:21:26.259Z,1.83
2018-01-01T19:23:55.429Z,1.63
2018-01-01T19:26:23.849Z,1.43
2018-01-01T19:28:52.290Z,2.00
2018-01-01T19:31:20.693Z,1.20
2018-01-01T19:33:49.106Z,1.13
2018-01-01T19:36:18.069Z,1.00
2018-01-01T19:38:47.997Z,1.07
2018-01-01T19:41:16.435Z,1.20
2018-01-01T19:43:44.957Z,1.40
2018-01-01T19:46:14.109Z,2.03
2018-01-01T19:48:42.535Z,1.43
2018-01-01T19:51:10.963Z,1.40
2018-01-01T19:53:39.341Z,2.50
2018-01-01T19:56:07.727Z,1.30
2018-01-01T19:58:36.539Z,1.40
2018-01-01T20:01:05.028Z,1.20
2018-01-01T20:03:34.932Z,1.27
2018-01-01T20:06:03.362Z,1.80
2018-01-01T20:08:31.739Z,1.77
2018-01-01T20:11:00.280Z,2.47
2018-01-01T20:13:28.955Z,2.27
2018-01-01T20:15:57.450Z,1.27
2018-01-01T20:18:26.601Z,1.90
2018-01-01T20:20:55.025Z,3.90
2018-01-01T20:23:24.192Z,1.50
2018-01-01T20:25:52.872Z,1.87
2018-01-01T20:28:21.297Z,2.00
2018-01-01T20:30:50.508Z,2.10
2018-01-01T20:33:18.898Z,2.60
2018-01-01T20:35:47.513Z,2.10
2018-01-01T20:38:16.200Z,1.57
2018-01-01T20:40:44.580Z,1.63
2018-01-01T20:43:13.299Z,3.43
2018-01-01T20:45:42.520Z,3.90
2018-01-01T20:48:10.912Z,1.57
2018-01-01T20:50:39.426Z,3.10
2018-01-01T20:53:08.591Z,2.80
2018-01-01T20:55:36.975Z,2.33
2018-01-01T20:58:05.570Z,1.77
2018-01-01T21:00:33.983Z,4.03
2018-01-01T21:03:02.724Z,2.47
2018-01-01T21:05:31.601Z,3.10
2018-01-01T21:08:00.025Z,1.90
2018-01-01T21:10:28.668Z,4.20
2018-01-01T21:12:57.143Z,1.20
2018-01-01T21:15:25.571Z,2.30
2018-01-01T21:17:54.028Z,3.43
2018-01-01T21:20:22.747Z,2.33
2018-01-01T21:22:51.115Z,1.67
2018-01-01T21:25:19.501Z,2.53
2018-01-01T21:27:48.180Z,2.17
2018-01-01T21:30:16.570Z,1.43
2018-01-01T21:32:44.986Z,2.23
2018-01-01T21:35:13.482Z,3.80
2018-01-01T21:37:41.873Z,2.40
2018-01-01T21:40:10.425Z,3.50
2018-01-01T21:42:39.019Z,2.70
2018-01-01T21:45:07.390Z,1.60
2018-01-01T21:47:35.787Z,1.93
2018-01-01T21:50:04.220Z,1.23
2018-01-01T21:52:32.984Z,1.37
2018-01-01T21:55:01.385Z,0.50
2018-01-01T21:57:29.973Z,1.23
2018-01-01T21:59:58.360Z,1.40
2018-01-01T22:02:27.506Z,1.17
2018-01-01T22:04:56.255Z,1.20
2018-01-01T22:07:25.424Z,0.73
2018-01-01T22:09:53.804Z,0.50
2018-01-01T22:12:22.419Z,1.10
2018-01-01T22:14:50.814Z,2.27
2018-01-01T22:17:19.279Z,1.03
2018-01-01T22:19:47.762Z,0.63
2018-01-01T22:22:16.272Z,1.00
2018-01-01T22:24:44.735Z,1.10
2018-01-01T22:27:13.285Z,1.23
2018-01-01T22:29:41.690Z,1.73
2018-01-01T22:32:10.096Z,0.60
2018-01-01T22:34:38.531Z,0.77
2018-01-01T22:37:06.976Z,0.73
2018-01-01T22:39:35.450Z,1.30
2018-01-01T22:42:04.627Z,1.23
2018-01-01T22:44:33.025Z,1.10
2018-01-01T22:47:01.411Z,0.70
2018-01-01T22:49:29.958Z,0.70
2018-01-01T22:51:58.281Z,0.50
2018-01-01T22:54:27.001Z,0.50
2018-01-01T22:56:56.206Z,0.50
2018-01-01T22:59:24.670Z,0.50
2018-01-01T23:01:53.831Z,0.87
2018-01-01T23:04:22.257Z,0.93
2018-01-01T23:06:50.789Z,0.60
2018-01-01T23:09:19.977Z,0.50
2018-01-01T23:11:48.433Z,0.63
2018-01-01T23:14:16.903Z,0.70
2018-01-01T23:16:45.283Z,0.43
2018-01-01T23:19:14.076Z,1.57
2018-01-01T23:21:42.460Z,0.77
2018-01-01T23:24:10.848Z,1.10
2018-01-01T23:26:39.415Z,0.60
2018-01-01T23:29:07.783Z,1.00
2018-01-01T23:31:37.873Z,0.60
2018-01-01T23:34:06.444Z,0.80
2018-01-01T23:36:34.822Z,0.80
2018-01-01T23:39:03.316Z,1.10
2018-01-01T23:41:31.950Z,0.60
2018-01-01T23:44:00.767Z,0.90
2018-01-01T23:46:29.158Z,0.90
2018-01-01T23:48:57.608Z,0.50
2018-01-01T23:51:26.017Z,0.73
2018-01-01T23:53:54.410Z,1.00
2018-01-01T23:56:22.960Z,0.67
2018-01-01T23:58:51.374Z,0.60
